Auburn, Alabama
Current Conditions -  °F | °C
As of 12:35 AM on Wednesday 26 Nov 2014 (Local Time) from KAUO Reporting Station
Broken Clouds Broken Clouds  
Wind Chill: 43°   Ceiling: 12000
Heat Index: 46°   Visibility: 10mi
Dew Point: 32°   Wind: 7mph
Humidity: 57%   Direction: 320°NW
Pressure: 30.04"   Gusts: NA
Location:  32.61°N, 85.48°W
Report Text: KAUO 260635Z AUTO 32006KT 10SM FEW070 SCT095 BKN120 08/00 A3004 RMK AO1
Loading
Personal Weather Stations






























Interactive Weather Map New forecast layout! Learn more

10-Day Weather Forecast

Advertisements
Track Severe Weather on mobile